sensor_id;sensor_type;location;lat;lon;timestamp;P1;durP1;ratioP1;P2;durP2;ratioP2
8592;SDS011;4334;49.982;8.398;2022-08-21T00:00:06;6.70;;;3.30;;
8592;SDS011;4334;49.982;8.398;2022-08-21T00:02:35;6.83;;;3.10;;
8592;SDS011;4334;49.982;8.398;2022-08-21T00:05:03;6.70;;;3.20;;
8592;SDS011;4334;49.982;8.398;2022-08-21T00:07:30;8.33;;;3.43;;
8592;SDS011;4334;49.982;8.398;2022-08-21T00:09:57;6.97;;;3.53;;
8592;SDS011;4334;49.982;8.398;2022-08-21T00:12:26;7.13;;;3.70;;
8592;SDS011;4334;49.982;8.398;2022-08-21T00:14:53;8.20;;;3.80;;
8592;SDS011;4334;49.982;8.398;2022-08-21T00:17:20;7.93;;;3.63;;
8592;SDS011;4334;49.982;8.398;2022-08-21T00:19:47;5.23;;;3.30;;
8592;SDS011;4334;49.982;8.398;2022-08-21T00:22:14;7.00;;;3.93;;
8592;SDS011;4334;49.982;8.398;2022-08-21T00:24:42;7.40;;;3.63;;
8592;SDS011;4334;49.982;8.398;2022-08-21T00:27:09;6.07;;;3.43;;
8592;SDS011;4334;49.982;8.398;2022-08-21T00:29:37;6.87;;;3.80;;
8592;SDS011;4334;49.982;8.398;2022-08-21T00:32:04;6.77;;;3.43;;
8592;SDS011;4334;49.982;8.398;2022-08-21T00:34:31;7.13;;;3.80;;
8592;SDS011;4334;49.982;8.398;2022-08-21T00:36:58;7.87;;;3.97;;
8592;SDS011;4334;49.982;8.398;2022-08-21T00:39:26;7.37;;;3.83;;
8592;SDS011;4334;49.982;8.398;2022-08-21T00:41:53;9.63;;;4.17;;
8592;SDS011;4334;49.982;8.398;2022-08-21T00:44:20;8.03;;;3.53;;
8592;SDS011;4334;49.982;8.398;2022-08-21T00:46:48;7.53;;;3.53;;
8592;SDS011;4334;49.982;8.398;2022-08-21T00:49:15;7.07;;;3.80;;
8592;SDS011;4334;49.982;8.398;2022-08-21T00:51:43;6.63;;;3.70;;
8592;SDS011;4334;49.982;8.398;2022-08-21T00:54:14;7.17;;;3.60;;
8592;SDS011;4334;49.982;8.398;2022-08-21T00:56:41;10.80;;;3.70;;
8592;SDS011;4334;49.982;8.398;2022-08-21T00:59:08;6.77;;;3.83;;
8592;SDS011;4334;49.982;8.398;2022-08-21T01:01:36;6.87;;;3.40;;
8592;SDS011;4334;49.982;8.398;2022-08-21T01:04:05;8.03;;;3.80;;
8592;SDS011;4334;49.982;8.398;2022-08-21T01:06:32;9.93;;;3.83;;
8592;SDS011;4334;49.982;8.398;2022-08-21T01:09:00;9.07;;;3.70;;
8592;SDS011;4334;49.982;8.398;2022-08-21T01:11:27;5.60;;;3.90;;
8592;SDS011;4334;49.982;8.398;2022-08-21T01:13:54;6.80;;;3.90;;
8592;SDS011;4334;49.982;8.398;2022-08-21T01:16:21;5.40;;;4.10;;
8592;SDS011;4334;49.982;8.398;2022-08-21T01:18:49;9.60;;;4.03;;
8592;SDS011;4334;49.982;8.398;2022-08-21T01:21:18;9.07;;;3.90;;
8592;SDS011;4334;49.982;8.398;2022-08-21T01:23:47;5.23;;;3.67;;
8592;SDS011;4334;49.982;8.398;2022-08-21T01:26:16;9.93;;;4.10;;
8592;SDS011;4334;49.982;8.398;2022-08-21T01:28:49;9.60;;;4.10;;
8592;SDS011;4334;49.982;8.398;2022-08-21T01:31:19;7.13;;;4.23;;
8592;SDS011;4334;49.982;8.398;2022-08-21T01:33:48;10.30;;;3.87;;
8592;SDS011;4334;49.982;8.398;2022-08-21T01:36:15;7.17;;;3.67;;
8592;SDS011;4334;49.982;8.398;2022-08-21T01:38:43;5.13;;;3.53;;
8592;SDS011;4334;49.982;8.398;2022-08-21T01:41:12;5.13;;;3.60;;
8592;SDS011;4334;49.982;8.398;2022-08-21T01:43:39;6.53;;;3.80;;
8592;SDS011;4334;49.982;8.398;2022-08-21T01:46:06;8.17;;;4.03;;
8592;SDS011;4334;49.982;8.398;2022-08-21T01:48:33;6.60;;;3.27;;
8592;SDS011;4334;49.982;8.398;2022-08-21T01:51:01;5.30;;;2.97;;
8592;SDS011;4334;49.982;8.398;2022-08-21T01:53:28;7.80;;;3.50;;
8592;SDS011;4334;49.982;8.398;2022-08-21T01:55:56;7.77;;;3.20;;
8592;SDS011;4334;49.982;8.398;2022-08-21T01:58:23;5.27;;;3.13;;
8592;SDS011;4334;49.982;8.398;2022-08-21T02:00:50;6.23;;;3.60;;
8592;SDS011;4334;49.982;8.398;2022-08-21T02:03:17;9.13;;;3.70;;
8592;SDS011;4334;49.982;8.398;2022-08-21T02:05:44;7.87;;;3.63;;
8592;SDS011;4334;49.982;8.398;2022-08-21T02:08:11;7.23;;;3.93;;
8592;SDS011;4334;49.982;8.398;2022-08-21T02:10:38;8.63;;;3.30;;
8592;SDS011;4334;49.982;8.398;2022-08-21T02:13:07;7.87;;;3.33;;
8592;SDS011;4334;49.982;8.398;2022-08-21T02:15:34;3.93;;;2.97;;
8592;SDS011;4334;49.982;8.398;2022-08-21T02:18:02;7.40;;;3.57;;
8592;SDS011;4334;49.982;8.398;2022-08-21T02:20:30;5.40;;;3.20;;
8592;SDS011;4334;49.982;8.398;2022-08-21T02:22:58;7.53;;;3.37;;
8592;SDS011;4334;49.982;8.398;2022-08-21T02:25:25;8.07;;;3.77;;
8592;SDS011;4334;49.982;8.398;2022-08-21T02:27:53;8.37;;;3.70;;
8592;SDS011;4334;49.982;8.398;2022-08-21T02:30:22;5.93;;;3.20;;
8592;SDS011;4334;49.982;8.398;2022-08-21T02:32:49;7.10;;;3.97;;
8592;SDS011;4334;49.982;8.398;2022-08-21T02:35:16;8.90;;;3.80;;
8592;SDS011;4334;49.982;8.398;2022-08-21T02:37:45;5.70;;;3.27;;
8592;SDS011;4334;49.982;8.398;2022-08-21T02:40:14;9.47;;;3.50;;
8592;SDS011;4334;49.982;8.398;2022-08-21T02:42:41;5.43;;;3.17;;
8592;SDS011;4334;49.982;8.398;2022-08-21T02:45:09;6.70;;;3.53;;
8592;SDS011;4334;49.982;8.398;2022-08-21T02:47:37;6.63;;;3.40;;
8592;SDS011;4334;49.982;8.398;2022-08-21T02:50:05;6.77;;;3.47;;
8592;SDS011;4334;49.982;8.398;2022-08-21T02:52:33;7.73;;;3.80;;
8592;SDS011;4334;49.982;8.398;2022-08-21T02:55:01;10.27;;;4.00;;
8592;SDS011;4334;49.982;8.398;2022-08-21T02:57:29;7.90;;;3.83;;
8592;SDS011;4334;49.982;8.398;2022-08-21T02:59:57;8.87;;;3.70;;
8592;SDS011;4334;49.982;8.398;2022-08-21T03:02:24;8.00;;;3.50;;
8592;SDS011;4334;49.982;8.398;2022-08-21T03:04:52;6.50;;;3.37;;
8592;SDS011;4334;49.982;8.398;2022-08-21T03:07:20;9.43;;;4.10;;
8592;SDS011;4334;49.982;8.398;2022-08-21T03:09:47;7.73;;;3.60;;
8592;SDS011;4334;49.982;8.398;2022-08-21T03:12:14;7.83;;;3.30;;
8592;SDS011;4334;49.982;8.398;2022-08-21T03:14:41;7.67;;;3.70;;
8592;SDS011;4334;49.982;8.398;2022-08-21T03:17:08;7.27;;;3.60;;
8592;SDS011;4334;49.982;8.398;2022-08-21T03:19:35;8.67;;;3.90;;
8592;SDS011;4334;49.982;8.398;2022-08-21T03:22:03;7.60;;;3.60;;
8592;SDS011;4334;49.982;8.398;2022-08-21T03:24:31;7.50;;;3.60;;
8592;SDS011;4334;49.982;8.398;2022-08-21T03:26:58;8.13;;;3.47;;
8592;SDS011;4334;49.982;8.398;2022-08-21T03:29:25;8.90;;;3.93;;
8592;SDS011;4334;49.982;8.398;2022-08-21T03:31:52;8.20;;;3.50;;
8592;SDS011;4334;49.982;8.398;2022-08-21T03:34:20;6.23;;;3.63;;
8592;SDS011;4334;49.982;8.398;2022-08-21T03:36:47;8.43;;;3.77;;
8592;SDS011;4334;49.982;8.398;2022-08-21T03:39:16;7.07;;;3.50;;
8592;SDS011;4334;49.982;8.398;2022-08-21T03:41:43;6.87;;;3.87;;
8592;SDS011;4334;49.982;8.398;2022-08-21T03:44:12;8.63;;;3.93;;
8592;SDS011;4334;49.982;8.398;2022-08-21T03:46:39;10.80;;;3.67;;
8592;SDS011;4334;49.982;8.398;2022-08-21T03:49:06;6.60;;;3.83;;
8592;SDS011;4334;49.982;8.398;2022-08-21T03:51:33;8.60;;;3.40;;
8592;SDS011;4334;49.982;8.398;2022-08-21T03:54:01;10.87;;;3.93;;
8592;SDS011;4334;49.982;8.398;2022-08-21T03:56:29;7.77;;;3.83;;
8592;SDS011;4334;49.982;8.398;2022-08-21T03:58:56;6.37;;;4.07;;
8592;SDS011;4334;49.982;8.398;2022-08-21T04:01:23;8.10;;;3.63;;
8592;SDS011;4334;49.982;8.398;2022-08-21T04:03:51;7.87;;;4.10;;
8592;SDS011;4334;49.982;8.398;2022-08-21T04:06:18;7.33;;;3.97;;
8592;SDS011;4334;49.982;8.398;2022-08-21T04:08:45;8.83;;;4.20;;
8592;SDS011;4334;49.982;8.398;2022-08-21T04:11:12;7.90;;;3.97;;
8592;SDS011;4334;49.982;8.398;2022-08-21T04:13:41;8.23;;;4.13;;
8592;SDS011;4334;49.982;8.398;2022-08-21T04:16:08;9.67;;;4.10;;
8592;SDS011;4334;49.982;8.398;2022-08-21T04:18:35;7.47;;;4.03;;
8592;SDS011;4334;49.982;8.398;2022-08-21T04:21:02;9.63;;;4.00;;
8592;SDS011;4334;49.982;8.398;2022-08-21T04:23:29;7.90;;;4.40;;
8592;SDS011;4334;49.982;8.398;2022-08-21T04:25:56;6.40;;;3.93;;
8592;SDS011;4334;49.982;8.398;2022-08-21T04:28:24;9.70;;;3.80;;
8592;SDS011;4334;49.982;8.398;2022-08-21T04:30:53;10.00;;;4.47;;
8592;SDS011;4334;49.982;8.398;2022-08-21T04:33:21;10.37;;;4.10;;
8592;SDS011;4334;49.982;8.398;2022-08-21T04:35:48;7.63;;;4.00;;
8592;SDS011;4334;49.982;8.398;2022-08-21T04:38:16;9.53;;;3.67;;
8592;SDS011;4334;49.982;8.398;2022-08-21T04:40:43;9.65;;;3.90;;
8592;SDS011;4334;49.982;8.398;2022-08-21T04:43:10;8.83;;;4.10;;
8592;SDS011;4334;49.982;8.398;2022-08-21T04:45:38;7.73;;;3.50;;
8592;SDS011;4334;49.982;8.398;2022-08-21T04:48:09;6.60;;;3.95;;
8592;SDS011;4334;49.982;8.398;2022-08-21T04:50:37;7.27;;;4.10;;
8592;SDS011;4334;49.982;8.398;2022-08-21T04:53:06;7.87;;;4.20;;
8592;SDS011;4334;49.982;8.398;2022-08-21T04:55:34;5.93;;;3.83;;
8592;SDS011;4334;49.982;8.398;2022-08-21T04:58:02;5.63;;;3.87;;
8592;SDS011;4334;49.982;8.398;2022-08-21T05:00:30;6.30;;;4.07;;
8592;SDS011;4334;49.982;8.398;2022-08-21T05:02:58;6.10;;;4.00;;
8592;SDS011;4334;49.982;8.398;2022-08-21T05:05:28;9.97;;;3.67;;
8592;SDS011;4334;49.982;8.398;2022-08-21T05:07:55;8.57;;;4.10;;
8592;SDS011;4334;49.982;8.398;2022-08-21T05:10:23;7.53;;;3.80;;
8592;SDS011;4334;49.982;8.398;2022-08-21T05:12:51;7.87;;;4.07;;
8592;SDS011;4334;49.982;8.398;2022-08-21T05:15:18;7.57;;;3.67;;
8592;SDS011;4334;49.982;8.398;2022-08-21T05:17:45;9.80;;;3.90;;
8592;SDS011;4334;49.982;8.398;2022-08-21T05:20:12;6.53;;;3.80;;
8592;SDS011;4334;49.982;8.398;2022-08-21T05:22:41;5.70;;;3.37;;
8592;SDS011;4334;49.982;8.398;2022-08-21T05:25:08;10.40;;;3.83;;
8592;SDS011;4334;49.982;8.398;2022-08-21T05:27:35;7.03;;;3.23;;
8592;SDS011;4334;49.982;8.398;2022-08-21T05:30:04;9.73;;;4.00;;
8592;SDS011;4334;49.982;8.398;2022-08-21T05:32:32;6.97;;;3.63;;
8592;SDS011;4334;49.982;8.398;2022-08-21T05:35:00;7.73;;;3.70;;
8592;SDS011;4334;49.982;8.398;2022-08-21T05:37:27;5.07;;;3.27;;
8592;SDS011;4334;49.982;8.398;2022-08-21T05:39:55;5.30;;;3.10;;
8592;SDS011;4334;49.982;8.398;2022-08-21T05:42:22;5.37;;;3.13;;
8592;SDS011;4334;49.982;8.398;2022-08-21T05:44:49;5.87;;;3.30;;
8592;SDS011;4334;49.982;8.398;2022-08-21T05:47:15;7.10;;;3.60;;
8592;SDS011;4334;49.982;8.398;2022-08-21T05:49:42;4.93;;;3.20;;
8592;SDS011;4334;49.982;8.398;2022-08-21T05:52:09;6.13;;;3.33;;
8592;SDS011;4334;49.982;8.398;2022-08-21T05:54:35;7.17;;;3.90;;
8592;SDS011;4334;49.982;8.398;2022-08-21T05:57:04;9.27;;;3.83;;
8592;SDS011;4334;49.982;8.398;2022-08-21T05:59:31;6.60;;;3.90;;
8592;SDS011;4334;49.982;8.398;2022-08-21T06:01:57;8.02;;;3.88;;
8592;SDS011;4334;49.982;8.398;2022-08-21T06:04:24;11.43;;;6.28;;
8592;SDS011;4334;49.982;8.398;2022-08-21T06:06:51;12.45;;;4.25;;
8592;SDS011;4334;49.982;8.398;2022-08-21T06:09:17;7.45;;;3.72;;
8592;SDS011;4334;49.982;8.398;2022-08-21T06:11:44;5.60;;;3.10;;
8592;SDS011;4334;49.982;8.398;2022-08-21T06:14:14;6.50;;;3.65;;
8592;SDS011;4334;49.982;8.398;2022-08-21T06:16:41;10.73;;;3.67;;
8592;SDS011;4334;49.982;8.398;2022-08-21T06:19:08;6.25;;;3.20;;
8592;SDS011;4334;49.982;8.398;2022-08-21T06:21:35;7.93;;;3.45;;
8592;SDS011;4334;49.982;8.398;2022-08-21T06:24:01;7.32;;;3.67;;
8592;SDS011;4334;49.982;8.398;2022-08-21T06:26:29;5.50;;;3.00;;
8592;SDS011;4334;49.982;8.398;2022-08-21T06:28:57;8.25;;;3.30;;
8592;SDS011;4334;49.982;8.398;2022-08-21T06:31:26;7.97;;;3.85;;
8592;SDS011;4334;49.982;8.398;2022-08-21T06:33:53;7.18;;;3.53;;
8592;SDS011;4334;49.982;8.398;2022-08-21T06:36:20;4.60;;;3.20;;
8592;SDS011;4334;49.982;8.398;2022-08-21T06:38:47;5.57;;;2.90;;
8592;SDS011;4334;49.982;8.398;2022-08-21T06:41:14;7.18;;;3.30;;
8592;SDS011;4334;49.982;8.398;2022-08-21T06:43:41;7.18;;;3.40;;
8592;SDS011;4334;49.982;8.398;2022-08-21T06:46:07;4.95;;;3.10;;
8592;SDS011;4334;49.982;8.398;2022-08-21T06:48:35;6.07;;;3.17;;
8592;SDS011;4334;49.982;8.398;2022-08-21T06:51:02;9.20;;;3.28;;
8592;SDS011;4334;49.982;8.398;2022-08-21T06:53:29;4.93;;;3.25;;
8592;SDS011;4334;49.982;8.398;2022-08-21T06:55:55;7.07;;;3.40;;
8592;SDS011;4334;49.982;8.398;2022-08-21T06:58:22;6.50;;;3.58;;
8592;SDS011;4334;49.982;8.398;2022-08-21T07:00:49;7.35;;;3.28;;
8592;SDS011;4334;49.982;8.398;2022-08-21T07:03:18;5.75;;;3.50;;
8592;SDS011;4334;49.982;8.398;2022-08-21T07:05:47;4.93;;;3.38;;
8592;SDS011;4334;49.982;8.398;2022-08-21T07:08:14;6.05;;;3.40;;
8592;SDS011;4334;49.982;8.398;2022-08-21T07:10:41;5.32;;;3.53;;
8592;SDS011;4334;49.982;8.398;2022-08-21T07:13:08;6.45;;;3.17;;
8592;SDS011;4334;49.982;8.398;2022-08-21T07:15:35;4.75;;;3.05;;
8592;SDS011;4334;49.982;8.398;2022-08-21T07:18:02;5.40;;;3.22;;
8592;SDS011;4334;49.982;8.398;2022-08-21T07:20:29;11.40;;;3.80;;
8592;SDS011;4334;49.982;8.398;2022-08-21T07:23:00;5.72;;;3.47;;
8592;SDS011;4334;49.982;8.398;2022-08-21T07:25:29;8.60;;;3.78;;
8592;SDS011;4334;49.982;8.398;2022-08-21T07:27:56;7.28;;;3.13;;
8592;SDS011;4334;49.982;8.398;2022-08-21T07:30:23;8.50;;;3.53;;
8592;SDS011;4334;49.982;8.398;2022-08-21T07:32:50;7.55;;;3.63;;
8592;SDS011;4334;49.982;8.398;2022-08-21T07:35:18;5.50;;;3.95;;
8592;SDS011;4334;49.982;8.398;2022-08-21T07:37:46;5.60;;;2.88;;
8592;SDS011;4334;49.982;8.398;2022-08-21T07:40:14;4.63;;;3.28;;
8592;SDS011;4334;49.982;8.398;2022-08-21T07:42:42;7.22;;;3.58;;
8592;SDS011;4334;49.982;8.398;2022-08-21T07:45:10;6.35;;;3.78;;
8592;SDS011;4334;49.982;8.398;2022-08-21T07:47:37;6.22;;;3.60;;
8592;SDS011;4334;49.982;8.398;2022-08-21T07:50:04;6.60;;;3.00;;
8592;SDS011;4334;49.982;8.398;2022-08-21T07:52:32;6.22;;;3.53;;
8592;SDS011;4334;49.982;8.398;2022-08-21T07:54:59;8.90;;;3.33;;
8592;SDS011;4334;49.982;8.398;2022-08-21T07:57:27;5.30;;;3.50;;
8592;SDS011;4334;49.982;8.398;2022-08-21T07:59:54;6.53;;;3.15;;
8592;SDS011;4334;49.982;8.398;2022-08-21T08:02:22;5.57;;;3.40;;
8592;SDS011;4334;49.982;8.398;2022-08-21T08:04:49;6.28;;;3.40;;
8592;SDS011;4334;49.982;8.398;2022-08-21T08:07:16;7.53;;;3.50;;
8592;SDS011;4334;49.982;8.398;2022-08-21T08:09:43;5.88;;;3.60;;
8592;SDS011;4334;49.982;8.398;2022-08-21T08:12:10;5.45;;;3.20;;
8592;SDS011;4334;49.982;8.398;2022-08-21T08:14:38;4.40;;;2.90;;
8592;SDS011;4334;49.982;8.398;2022-08-21T08:17:05;5.45;;;3.10;;
8592;SDS011;4334;49.982;8.398;2022-08-21T08:19:31;8.05;;;4.35;;
8592;SDS011;4334;49.982;8.398;2022-08-21T08:21:58;5.30;;;3.58;;
8592;SDS011;4334;49.982;8.398;2022-08-21T08:24:25;5.57;;;3.53;;
8592;SDS011;4334;49.982;8.398;2022-08-21T08:26:52;7.30;;;3.97;;
8592;SDS011;4334;49.982;8.398;2022-08-21T08:29:21;5.55;;;4.07;;
8592;SDS011;4334;49.982;8.398;2022-08-21T08:31:49;7.15;;;3.80;;
8592;SDS011;4334;49.982;8.398;2022-08-21T08:34:16;7.13;;;4.85;;
8592;SDS011;4334;49.982;8.398;2022-08-21T08:36:44;5.68;;;4.35;;
8592;SDS011;4334;49.982;8.398;2022-08-21T08:39:11;5.13;;;4.03;;
8592;SDS011;4334;49.982;8.398;2022-08-21T08:41:38;5.18;;;3.78;;
8592;SDS011;4334;49.982;8.398;2022-08-21T08:44:07;7.18;;;4.28;;
8592;SDS011;4334;49.982;8.398;2022-08-21T08:46:35;6.60;;;4.32;;
8592;SDS011;4334;49.982;8.398;2022-08-21T08:49:09;7.30;;;4.88;;
8592;SDS011;4334;49.982;8.398;2022-08-21T08:51:42;7.43;;;4.70;;
8592;SDS011;4334;49.982;8.398;2022-08-21T08:54:13;5.95;;;4.60;;
8592;SDS011;4334;49.982;8.398;2022-08-21T08:56:45;5.38;;;4.40;;
8592;SDS011;4334;49.982;8.398;2022-08-21T08:59:13;8.20;;;4.65;;
8592;SDS011;4334;49.982;8.398;2022-08-21T09:01:43;7.47;;;4.43;;
8592;SDS011;4334;49.982;8.398;2022-08-21T09:04:11;8.63;;;4.40;;
8592;SDS011;4334;49.982;8.398;2022-08-21T09:06:44;6.60;;;4.93;;
8592;SDS011;4334;49.982;8.398;2022-08-21T09:09:22;6.82;;;4.53;;
8592;SDS011;4334;49.982;8.398;2022-08-21T09:11:58;5.88;;;3.47;;
8592;SDS011;4334;49.982;8.398;2022-08-21T09:14:31;5.43;;;3.78;;
8592;SDS011;4334;49.982;8.398;2022-08-21T09:17:12;5.80;;;3.53;;
8592;SDS011;4334;49.982;8.398;2022-08-21T09:19:58;6.07;;;3.70;;
8592;SDS011;4334;49.982;8.398;2022-08-21T09:22:37;6.97;;;3.97;;
8592;SDS011;4334;49.982;8.398;2022-08-21T09:25:11;7.18;;;4.00;;
8592;SDS011;4334;49.982;8.398;2022-08-21T09:27:44;5.07;;;3.70;;
8592;SDS011;4334;49.982;8.398;2022-08-21T09:30:11;6.65;;;3.00;;
8592;SDS011;4334;49.982;8.398;2022-08-21T09:32:38;5.35;;;3.05;;
8592;SDS011;4334;49.982;8.398;2022-08-21T09:35:08;6.68;;;2.83;;
8592;SDS011;4334;49.982;8.398;2022-08-21T09:37:48;9.00;;;3.10;;
8592;SDS011;4334;49.982;8.398;2022-08-21T09:40:19;7.32;;;2.92;;
8592;SDS011;4334;49.982;8.398;2022-08-21T09:42:55;5.68;;;2.88;;
8592;SDS011;4334;49.982;8.398;2022-08-21T09:45:23;9.95;;;3.30;;
8592;SDS011;4334;49.982;8.398;2022-08-21T09:47:50;7.57;;;3.45;;
8592;SDS011;4334;49.982;8.398;2022-08-21T09:50:20;7.78;;;3.00;;
8592;SDS011;4334;49.982;8.398;2022-08-21T09:52:49;6.97;;;3.00;;
8592;SDS011;4334;49.982;8.398;2022-08-21T09:55:21;4.55;;;2.88;;
8592;SDS011;4334;49.982;8.398;2022-08-21T09:58:12;6.38;;;2.90;;
8592;SDS011;4334;49.982;8.398;2022-08-21T10:00:39;5.97;;;3.10;;
8592;SDS011;4334;49.982;8.398;2022-08-21T10:03:07;5.60;;;3.00;;
8592;SDS011;4334;49.982;8.398;2022-08-21T10:05:54;5.13;;;2.97;;
8592;SDS011;4334;49.982;8.398;2022-08-21T10:08:24;8.35;;;3.10;;
8592;SDS011;4334;49.982;8.398;2022-08-21T10:10:54;6.10;;;3.08;;
8592;SDS011;4334;49.982;8.398;2022-08-21T10:13:26;7.60;;;3.30;;
8592;SDS011;4334;49.982;8.398;2022-08-21T10:16:08;6.00;;;2.85;;
8592;SDS011;4334;49.982;8.398;2022-08-21T10:18:59;4.53;;;3.35;;
8592;SDS011;4334;49.982;8.398;2022-08-21T10:21:34;5.30;;;2.60;;
8592;SDS011;4334;49.982;8.398;2022-08-21T10:24:09;4.32;;;3.10;;
8592;SDS011;4334;49.982;8.398;2022-08-21T10:26:45;5.82;;;3.03;;
8592;SDS011;4334;49.982;8.398;2022-08-21T10:29:28;5.15;;;3.00;;
8592;SDS011;4334;49.982;8.398;2022-08-21T10:32:09;6.32;;;2.80;;
8592;SDS011;4334;49.982;8.398;2022-08-21T10:34:51;4.88;;;3.10;;
8592;SDS011;4334;49.982;8.398;2022-08-21T10:37:30;11.55;;;3.22;;
8592;SDS011;4334;49.982;8.398;2022-08-21T10:40:07;6.20;;;3.22;;
8592;SDS011;4334;49.982;8.398;2022-08-21T10:42:43;6.25;;;3.30;;
8592;SDS011;4334;49.982;8.398;2022-08-21T10:45:21;4.35;;;3.17;;
8592;SDS011;4334;49.982;8.398;2022-08-21T10:48:00;6.88;;;3.08;;
8592;SDS011;4334;49.982;8.398;2022-08-21T10:50:31;5.30;;;2.83;;
8592;SDS011;4334;49.982;8.398;2022-08-21T10:53:08;5.20;;;2.92;;
8592;SDS011;4334;49.982;8.398;2022-08-21T10:55:47;3.95;;;2.78;;
8592;SDS011;4334;49.982;8.398;2022-08-21T10:58:19;7.05;;;3.25;;
8592;SDS011;4334;49.982;8.398;2022-08-21T11:00:51;6.10;;;3.40;;
8592;SDS011;4334;49.982;8.398;2022-08-21T11:03:24;6.38;;;3.22;;
8592;SDS011;4334;49.982;8.398;2022-08-21T11:05:58;3.28;;;2.70;;
8592;SDS011;4334;49.982;8.398;2022-08-21T11:08:31;6.30;;;2.83;;
8592;SDS011;4334;49.982;8.398;2022-08-21T11:11:04;6.15;;;3.05;;
8592;SDS011;4334;49.982;8.398;2022-08-21T11:13:37;4.88;;;2.90;;
8592;SDS011;4334;49.982;8.398;2022-08-21T11:16:10;5.35;;;2.80;;
8592;SDS011;4334;49.982;8.398;2022-08-21T11:18:45;3.65;;;2.72;;
8592;SDS011;4334;49.982;8.398;2022-08-21T11:21:20;5.05;;;2.70;;
8592;SDS011;4334;49.982;8.398;2022-08-21T11:23:59;4.72;;;2.75;;
8592;SDS011;4334;49.982;8.398;2022-08-21T11:26:36;3.92;;;2.47;;
8592;SDS011;4334;49.982;8.398;2022-08-21T11:29:09;5.65;;;3.05;;
8592;SDS011;4334;49.982;8.398;2022-08-21T11:31:44;5.00;;;2.85;;
8592;SDS011;4334;49.982;8.398;2022-08-21T11:34:35;6.95;;;2.72;;
8592;SDS011;4334;49.982;8.398;2022-08-21T11:37:11;5.20;;;2.80;;
8592;SDS011;4334;49.982;8.398;2022-08-21T11:39:51;4.82;;;2.55;;
8592;SDS011;4334;49.982;8.398;2022-08-21T11:42:23;3.97;;;2.70;;
8592;SDS011;4334;49.982;8.398;2022-08-21T11:44:56;5.43;;;2.70;;
8592;SDS011;4334;49.982;8.398;2022-08-21T11:47:48;4.13;;;2.40;;
8592;SDS011;4334;49.982;8.398;2022-08-21T11:50:23;4.88;;;2.47;;
8592;SDS011;4334;49.982;8.398;2022-08-21T11:52:53;6.13;;;2.90;;
8592;SDS011;4334;49.982;8.398;2022-08-21T11:55:28;3.97;;;2.40;;
8592;SDS011;4334;49.982;8.398;2022-08-21T11:57:59;4.47;;;2.65;;
8592;SDS011;4334;49.982;8.398;2022-08-21T12:00:31;4.88;;;2.47;;
8592;SDS011;4334;49.982;8.398;2022-08-21T12:03:06;5.03;;;2.58;;
8592;SDS011;4334;49.982;8.398;2022-08-21T12:05:36;7.10;;;2.70;;
8592;SDS011;4334;49.982;8.398;2022-08-21T12:08:09;4.30;;;2.20;;
8592;SDS011;4334;49.982;8.398;2022-08-21T12:10:40;5.95;;;2.30;;
8592;SDS011;4334;49.982;8.398;2022-08-21T12:13:26;4.20;;;2.40;;
8592;SDS011;4334;49.982;8.398;2022-08-21T12:16:04;4.68;;;2.58;;
8592;SDS011;4334;49.982;8.398;2022-08-21T12:18:32;4.20;;;2.30;;
8592;SDS011;4334;49.982;8.398;2022-08-21T12:21:01;4.32;;;2.40;;
8592;SDS011;4334;49.982;8.398;2022-08-21T12:23:32;4.60;;;2.20;;
8592;SDS011;4334;49.982;8.398;2022-08-21T12:26:18;3.63;;;2.30;;
8592;SDS011;4334;49.982;8.398;2022-08-21T12:28:49;5.18;;;2.47;;
8592;SDS011;4334;49.982;8.398;2022-08-21T12:31:20;3.15;;;2.25;;
8592;SDS011;4334;49.982;8.398;2022-08-21T12:33:54;3.13;;;2.20;;
8592;SDS011;4334;49.982;8.398;2022-08-21T12:36:24;4.10;;;2.53;;
8592;SDS011;4334;49.982;8.398;2022-08-21T12:38:57;3.55;;;2.22;;
8592;SDS011;4334;49.982;8.398;2022-08-21T12:41:28;4.32;;;2.30;;
8592;SDS011;4334;49.982;8.398;2022-08-21T12:43:59;3.00;;;2.20;;
8592;SDS011;4334;49.982;8.398;2022-08-21T12:46:32;4.97;;;2.55;;
8592;SDS011;4334;49.982;8.398;2022-08-21T12:49:03;5.25;;;2.50;;
8592;SDS011;4334;49.982;8.398;2022-08-21T12:51:45;5.13;;;2.40;;
8592;SDS011;4334;49.982;8.398;2022-08-21T12:54:21;3.20;;;2.25;;
8592;SDS011;4334;49.982;8.398;2022-08-21T12:56:56;3.45;;;2.25;;
8592;SDS011;4334;49.982;8.398;2022-08-21T12:59:24;3.03;;;2.10;;
8592;SDS011;4334;49.982;8.398;2022-08-21T13:01:51;3.92;;;2.30;;
8592;SDS011;4334;49.982;8.398;2022-08-21T13:04:21;3.78;;;2.17;;
8592;SDS011;4334;49.982;8.398;2022-08-21T13:06:53;5.45;;;2.20;;
8592;SDS011;4334;49.982;8.398;2022-08-21T13:09:23;4.45;;;2.20;;
8592;SDS011;4334;49.982;8.398;2022-08-21T13:11:53;4.20;;;2.22;;
8592;SDS011;4334;49.982;8.398;2022-08-21T13:14:23;4.15;;;2.30;;
8592;SDS011;4334;49.982;8.398;2022-08-21T13:16:58;3.75;;;2.30;;
8592;SDS011;4334;49.982;8.398;2022-08-21T13:19:28;4.30;;;2.42;;
8592;SDS011;4334;49.982;8.398;2022-08-21T13:21:56;4.28;;;2.30;;
8592;SDS011;4334;49.982;8.398;2022-08-21T13:24:24;2.53;;;2.05;;
8592;SDS011;4334;49.982;8.398;2022-08-21T13:26:54;4.18;;;2.25;;
8592;SDS011;4334;49.982;8.398;2022-08-21T13:29:26;4.88;;;2.40;;
8592;SDS011;4334;49.982;8.398;2022-08-21T13:31:55;4.03;;;2.28;;
8592;SDS011;4334;49.982;8.398;2022-08-21T13:34:25;3.50;;;2.10;;
8592;SDS011;4334;49.982;8.398;2022-08-21T13:36:57;4.90;;;2.40;;
8592;SDS011;4334;49.982;8.398;2022-08-21T13:39:26;4.18;;;2.28;;
8592;SDS011;4334;49.982;8.398;2022-08-21T13:41:54;7.32;;;2.20;;
8592;SDS011;4334;49.982;8.398;2022-08-21T13:44:30;8.48;;;2.80;;
8592;SDS011;4334;49.982;8.398;2022-08-21T13:47:02;4.07;;;2.25;;
8592;SDS011;4334;49.982;8.398;2022-08-21T13:49:33;3.58;;;2.17;;
8592;SDS011;4334;49.982;8.398;2022-08-21T13:52:02;4.60;;;2.40;;
8592;SDS011;4334;49.982;8.398;2022-08-21T13:54:37;2.75;;;2.28;;
8592;SDS011;4334;49.982;8.398;2022-08-21T13:57:15;4.15;;;2.25;;
8592;SDS011;4334;49.982;8.398;2022-08-21T13:59:45;5.13;;;2.17;;
8592;SDS011;4334;49.982;8.398;2022-08-21T14:02:12;4.95;;;2.33;;
8592;SDS011;4334;49.982;8.398;2022-08-21T14:04:43;3.45;;;2.30;;
8592;SDS011;4334;49.982;8.398;2022-08-21T14:07:16;2.75;;;2.10;;
8592;SDS011;4334;49.982;8.398;2022-08-21T14:09:45;5.93;;;2.47;;
8592;SDS011;4334;49.982;8.398;2022-08-21T14:12:14;2.50;;;1.98;;
8592;SDS011;4334;49.982;8.398;2022-08-21T14:14:42;2.90;;;2.20;;
8592;SDS011;4334;49.982;8.398;2022-08-21T14:17:12;4.18;;;1.92;;
8592;SDS011;4334;49.982;8.398;2022-08-21T14:19:41;3.80;;;2.17;;
8592;SDS011;4334;49.982;8.398;2022-08-21T14:24:59;3.35;;;2.20;;
8592;SDS011;4334;49.982;8.398;2022-08-21T14:27:28;5.80;;;2.53;;
8592;SDS011;4334;49.982;8.398;2022-08-21T14:29:58;7.88;;;5.53;;
8592;SDS011;4334;49.982;8.398;2022-08-21T14:32:28;6.72;;;2.30;;
8592;SDS011;4334;49.982;8.398;2022-08-21T14:34:57;3.53;;;2.30;;
8592;SDS011;4334;49.982;8.398;2022-08-21T14:37:23;3.75;;;2.50;;
8592;SDS011;4334;49.982;8.398;2022-08-21T14:39:50;4.53;;;2.25;;
8592;SDS011;4334;49.982;8.398;2022-08-21T14:42:17;5.78;;;2.22;;
8592;SDS011;4334;49.982;8.398;2022-08-21T14:44:44;4.57;;;2.10;;
8592;SDS011;4334;49.982;8.398;2022-08-21T14:47:13;4.03;;;2.10;;
8592;SDS011;4334;49.982;8.398;2022-08-21T14:49:39;2.70;;;2.15;;
8592;SDS011;4334;49.982;8.398;2022-08-21T14:52:06;4.63;;;1.80;;
8592;SDS011;4334;49.982;8.398;2022-08-21T14:54:33;3.42;;;2.20;;
8592;SDS011;4334;49.982;8.398;2022-08-21T14:57:02;3.25;;;2.00;;
8592;SDS011;4334;49.982;8.398;2022-08-21T14:59:32;2.45;;;1.90;;
8592;SDS011;4334;49.982;8.398;2022-08-21T15:01:59;5.25;;;2.20;;
8592;SDS011;4334;49.982;8.398;2022-08-21T15:04:27;5.40;;;2.42;;
8592;SDS011;4334;49.982;8.398;2022-08-21T15:06:54;3.85;;;2.63;;
8592;SDS011;4334;49.982;8.398;2022-08-21T15:09:21;6.20;;;2.20;;
8592;SDS011;4334;49.982;8.398;2022-08-21T15:11:49;4.40;;;2.25;;
8592;SDS011;4334;49.982;8.398;2022-08-21T15:14:18;3.35;;;2.10;;
8592;SDS011;4334;49.982;8.398;2022-08-21T15:16:46;2.38;;;2.17;;
8592;SDS011;4334;49.982;8.398;2022-08-21T15:19:14;6.45;;;2.30;;
8592;SDS011;4334;49.982;8.398;2022-08-21T15:21:42;4.55;;;2.00;;
8592;SDS011;4334;49.982;8.398;2022-08-21T15:24:08;3.45;;;2.03;;
8592;SDS011;4334;49.982;8.398;2022-08-21T15:26:35;4.57;;;2.20;;
8592;SDS011;4334;49.982;8.398;2022-08-21T15:29:02;4.25;;;2.00;;
8592;SDS011;4334;49.982;8.398;2022-08-21T15:31:31;4.07;;;2.20;;